sensor_id;sensor_type;location;lat;lon;timestamp;temperature;humidity
24448;DHT22;13348;50.984;5.822;2023-02-28T00:01:13;-1.50;99.90
24448;DHT22;13348;50.984;5.822;2023-02-28T00:03:41;-1.60;99.90
24448;DHT22;13348;50.984;5.822;2023-02-28T00:06:08;-1.60;99.90
24448;DHT22;13348;50.984;5.822;2023-02-28T00:08:36;-1.60;99.90
24448;DHT22;13348;50.984;5.822;2023-02-28T00:11:03;-1.50;99.90
24448;DHT22;13348;50.984;5.822;2023-02-28T00:13:31;-1.50;99.90
24448;DHT22;13348;50.984;5.822;2023-02-28T00:15:58;-1.40;99.90
24448;DHT22;13348;50.984;5.822;2023-02-28T00:18:27;-1.20;99.90
24448;DHT22;13348;50.984;5.822;2023-02-28T00:20:54;-1.10;99.90
24448;DHT22;13348;50.984;5.822;2023-02-28T00:23:21;-1.10;99.90
24448;DHT22;13348;50.984;5.822;2023-02-28T00:25:48;-1.10;99.90
24448;DHT22;13348;50.984;5.822;2023-02-28T00:28:15;-1.10;99.90
24448;DHT22;13348;50.984;5.822;2023-02-28T00:30:42;-1.10;99.90
24448;DHT22;13348;50.984;5.822;2023-02-28T00:33:09;-1.10;99.90
24448;DHT22;13348;50.984;5.822;2023-02-28T00:35:37;-1.10;99.90
24448;DHT22;13348;50.984;5.822;2023-02-28T00:38:04;-1.10;99.90
24448;DHT22;13348;50.984;5.822;2023-02-28T00:40:31;-1.20;99.90
24448;DHT22;13348;50.984;5.822;2023-02-28T00:42:58;-1.40;99.90
24448;DHT22;13348;50.984;5.822;2023-02-28T00:45:25;-1.30;99.90
24448;DHT22;13348;50.984;5.822;2023-02-28T00:47:52;-1.30;99.90
24448;DHT22;13348;50.984;5.822;2023-02-28T00:50:19;-1.40;99.90
24448;DHT22;13348;50.984;5.822;2023-02-28T00:52:48;-1.50;99.90
24448;DHT22;13348;50.984;5.822;2023-02-28T00:55:15;-1.60;99.90
24448;DHT22;13348;50.984;5.822;2023-02-28T00:57:42;-1.80;99.90
24448;DHT22;13348;50.984;5.822;2023-02-28T01:00:10;-1.90;99.90
24448;DHT22;13348;50.984;5.822;2023-02-28T01:02:37;-1.90;99.90
24448;DHT22;13348;50.984;5.822;2023-02-28T01:05:04;-1.90;99.90
24448;DHT22;13348;50.984;5.822;2023-02-28T01:07:31;-2.00;99.90
24448;DHT22;13348;50.984;5.822;2023-02-28T01:09:59;-2.00;99.90
24448;DHT22;13348;50.984;5.822;2023-02-28T01:12:26;-2.10;99.90
24448;DHT22;13348;50.984;5.822;2023-02-28T01:14:53;-2.20;99.90
24448;DHT22;13348;50.984;5.822;2023-02-28T01:17:20;-2.20;99.90
24448;DHT22;13348;50.984;5.822;2023-02-28T01:19:47;-2.20;99.90
24448;DHT22;13348;50.984;5.822;2023-02-28T01:22:14;-2.20;99.90
24448;DHT22;13348;50.984;5.822;2023-02-28T01:24:41;-2.30;99.90
24448;DHT22;13348;50.984;5.822;2023-02-28T01:27:09;-2.20;99.90
24448;DHT22;13348;50.984;5.822;2023-02-28T01:29:36;-2.20;99.90
24448;DHT22;13348;50.984;5.822;2023-02-28T01:32:03;-2.20;99.90
24448;DHT22;13348;50.984;5.822;2023-02-28T01:34:30;-2.20;99.90
24448;DHT22;13348;50.984;5.822;2023-02-28T01:36:57;-2.20;99.90
24448;DHT22;13348;50.984;5.822;2023-02-28T01:39:25;-2.20;99.90
24448;DHT22;13348;50.984;5.822;2023-02-28T01:41:52;-2.20;99.90
24448;DHT22;13348;50.984;5.822;2023-02-28T01:47:06;-2.30;99.90
24448;DHT22;13348;50.984;5.822;2023-02-28T01:49:33;-2.40;99.90
24448;DHT22;13348;50.984;5.822;2023-02-28T01:52:00;-2.40;99.90
24448;DHT22;13348;50.984;5.822;2023-02-28T01:54:28;-2.30;99.90
24448;DHT22;13348;50.984;5.822;2023-02-28T01:56:56;-2.40;99.90
24448;DHT22;13348;50.984;5.822;2023-02-28T01:59:26;-2.40;99.90
24448;DHT22;13348;50.984;5.822;2023-02-28T02:01:54;-2.50;99.90
24448;DHT22;13348;50.984;5.822;2023-02-28T02:04:22;-2.50;99.90
24448;DHT22;13348;50.984;5.822;2023-02-28T02:06:50;-2.60;99.90
24448;DHT22;13348;50.984;5.822;2023-02-28T02:09:17;-2.40;99.90
24448;DHT22;13348;50.984;5.822;2023-02-28T02:11:45;-2.50;99.90
24448;DHT22;13348;50.984;5.822;2023-02-28T02:14:20;-2.60;99.90
24448;DHT22;13348;50.984;5.822;2023-02-28T02:16:52;-2.50;99.90
24448;DHT22;13348;50.984;5.822;2023-02-28T02:19:33;-2.70;99.90
24448;DHT22;13348;50.984;5.822;2023-02-28T02:22:12;-2.80;99.90
24448;DHT22;13348;50.984;5.822;2023-02-28T02:24:45;-2.80;99.90
24448;DHT22;13348;50.984;5.822;2023-02-28T02:27:26;-2.80;99.90
24448;DHT22;13348;50.984;5.822;2023-02-28T02:33:03;-2.90;99.90
24448;DHT22;13348;50.984;5.822;2023-02-28T02:35:34;-3.20;99.90
24448;DHT22;13348;50.984;5.822;2023-02-28T02:38:06;-3.40;99.90
24448;DHT22;13348;50.984;5.822;2023-02-28T02:40:36;-3.70;99.90
24448;DHT22;13348;50.984;5.822;2023-02-28T02:43:06;-3.90;99.90
24448;DHT22;13348;50.984;5.822;2023-02-28T02:45:36;-4.00;99.90
24448;DHT22;13348;50.984;5.822;2023-02-28T02:48:05;-4.00;99.90
24448;DHT22;13348;50.984;5.822;2023-02-28T02:50:36;-4.00;99.90
24448;DHT22;13348;50.984;5.822;2023-02-28T02:53:03;-4.00;99.90
24448;DHT22;13348;50.984;5.822;2023-02-28T02:55:33;-4.10;99.90
24448;DHT22;13348;50.984;5.822;2023-02-28T02:58:01;-3.80;99.90
24448;DHT22;13348;50.984;5.822;2023-02-28T03:00:31;-3.50;99.90
24448;DHT22;13348;50.984;5.822;2023-02-28T03:02:59;-3.40;99.90
24448;DHT22;13348;50.984;5.822;2023-02-28T03:05:28;-3.50;99.90
24448;DHT22;13348;50.984;5.822;2023-02-28T03:07:58;-3.40;99.90
24448;DHT22;13348;50.984;5.822;2023-02-28T03:10:32;-3.40;99.90
24448;DHT22;13348;50.984;5.822;2023-02-28T03:13:12;-3.50;99.90
24448;DHT22;13348;50.984;5.822;2023-02-28T03:15:43;-3.50;99.90
24448;DHT22;13348;50.984;5.822;2023-02-28T03:18:18;-3.40;99.90
24448;DHT22;13348;50.984;5.822;2023-02-28T03:20:51;-3.30;99.90
24448;DHT22;13348;50.984;5.822;2023-02-28T03:23:23;-3.20;99.90
24448;DHT22;13348;50.984;5.822;2023-02-28T03:25:54;-3.00;99.90
24448;DHT22;13348;50.984;5.822;2023-02-28T03:28:25;-2.90;99.90
24448;DHT22;13348;50.984;5.822;2023-02-28T03:30:56;-2.90;99.90
24448;DHT22;13348;50.984;5.822;2023-02-28T03:33:26;-3.00;99.90
24448;DHT22;13348;50.984;5.822;2023-02-28T03:35:55;-3.10;99.90
24448;DHT22;13348;50.984;5.822;2023-02-28T03:38:28;-3.20;99.90
24448;DHT22;13348;50.984;5.822;2023-02-28T03:40:58;-2.90;99.90
24448;DHT22;13348;50.984;5.822;2023-02-28T03:43:29;-2.80;99.90
24448;DHT22;13348;50.984;5.822;2023-02-28T03:45:56;-2.70;99.90
24448;DHT22;13348;50.984;5.822;2023-02-28T03:48:29;-2.50;99.90
24448;DHT22;13348;50.984;5.822;2023-02-28T03:50:57;-2.30;99.90
24448;DHT22;13348;50.984;5.822;2023-02-28T03:53:27;-2.10;99.90
24448;DHT22;13348;50.984;5.822;2023-02-28T03:55:56;-2.20;99.90
24448;DHT22;13348;50.984;5.822;2023-02-28T03:58:26;-2.10;99.90
24448;DHT22;13348;50.984;5.822;2023-02-28T04:00:55;-2.10;99.90
24448;DHT22;13348;50.984;5.822;2023-02-28T04:03:24;-2.20;99.90
24448;DHT22;13348;50.984;5.822;2023-02-28T04:05:51;-2.30;99.90
24448;DHT22;13348;50.984;5.822;2023-02-28T04:08:19;-2.30;99.90
24448;DHT22;13348;50.984;5.822;2023-02-28T04:10:49;-2.40;99.90
24448;DHT22;13348;50.984;5.822;2023-02-28T04:13:16;-2.60;99.90
24448;DHT22;13348;50.984;5.822;2023-02-28T04:15:43;-2.60;99.90
24448;DHT22;13348;50.984;5.822;2023-02-28T04:18:10;-2.60;99.90
24448;DHT22;13348;50.984;5.822;2023-02-28T04:20:37;-2.70;99.90
24448;DHT22;13348;50.984;5.822;2023-02-28T04:23:04;-2.90;99.90
24448;DHT22;13348;50.984;5.822;2023-02-28T04:25:31;-2.90;99.90
24448;DHT22;13348;50.984;5.822;2023-02-28T04:27:59;-2.90;99.90
24448;DHT22;13348;50.984;5.822;2023-02-28T04:30:26;-3.00;99.90
24448;DHT22;13348;50.984;5.822;2023-02-28T04:32:55;-3.00;99.90
24448;DHT22;13348;50.984;5.822;2023-02-28T04:35:21;-3.00;99.90
24448;DHT22;13348;50.984;5.822;2023-02-28T04:37:48;-3.00;99.90
24448;DHT22;13348;50.984;5.822;2023-02-28T04:40:15;-3.10;99.90
24448;DHT22;13348;50.984;5.822;2023-02-28T04:42:42;-3.20;99.90
24448;DHT22;13348;50.984;5.822;2023-02-28T04:45:11;-3.00;99.90
24448;DHT22;13348;50.984;5.822;2023-02-28T04:47:37;-3.10;99.90
24448;DHT22;13348;50.984;5.822;2023-02-28T04:50:05;-3.10;99.90
24448;DHT22;13348;50.984;5.822;2023-02-28T04:52:32;-3.30;99.90
24448;DHT22;13348;50.984;5.822;2023-02-28T04:54:58;-3.30;99.90
24448;DHT22;13348;50.984;5.822;2023-02-28T04:57:25;-3.20;99.90
24448;DHT22;13348;50.984;5.822;2023-02-28T04:59:52;-3.30;99.90
24448;DHT22;13348;50.984;5.822;2023-02-28T05:02:21;-3.30;99.90
24448;DHT22;13348;50.984;5.822;2023-02-28T05:04:49;-3.30;99.90
24448;DHT22;13348;50.984;5.822;2023-02-28T05:07:15;-3.30;99.90
24448;DHT22;13348;50.984;5.822;2023-02-28T05:09:42;-3.20;99.90
24448;DHT22;13348;50.984;5.822;2023-02-28T05:12:09;-3.00;99.90
24448;DHT22;13348;50.984;5.822;2023-02-28T05:14:36;-3.10;99.90
24448;DHT22;13348;50.984;5.822;2023-02-28T05:17:03;-3.10;99.90
24448;DHT22;13348;50.984;5.822;2023-02-28T05:19:31;-3.00;99.90
24448;DHT22;13348;50.984;5.822;2023-02-28T05:21:58;-2.90;99.90
24448;DHT22;13348;50.984;5.822;2023-02-28T05:24:25;-2.90;99.90
24448;DHT22;13348;50.984;5.822;2023-02-28T05:26:53;-2.90;99.90
24448;DHT22;13348;50.984;5.822;2023-02-28T05:29:20;-2.90;99.90
24448;DHT22;13348;50.984;5.822;2023-02-28T05:31:47;-3.10;99.90
24448;DHT22;13348;50.984;5.822;2023-02-28T05:34:14;-3.20;99.90
24448;DHT22;13348;50.984;5.822;2023-02-28T05:36:43;-3.30;99.90
24448;DHT22;13348;50.984;5.822;2023-02-28T05:39:10;-3.40;99.90
24448;DHT22;13348;50.984;5.822;2023-02-28T05:41:38;-3.50;99.90
24448;DHT22;13348;50.984;5.822;2023-02-28T05:44:05;-3.50;99.90
24448;DHT22;13348;50.984;5.822;2023-02-28T05:46:32;-3.60;99.90
24448;DHT22;13348;50.984;5.822;2023-02-28T05:48:59;-3.60;99.90
24448;DHT22;13348;50.984;5.822;2023-02-28T05:51:26;-3.60;99.90
24448;DHT22;13348;50.984;5.822;2023-02-28T05:53:57;-3.60;99.90
24448;DHT22;13348;50.984;5.822;2023-02-28T05:56:24;-3.60;99.90
24448;DHT22;13348;50.984;5.822;2023-02-28T05:58:51;-3.60;99.90
24448;DHT22;13348;50.984;5.822;2023-02-28T06:01:19;-3.70;99.90
24448;DHT22;13348;50.984;5.822;2023-02-28T06:03:47;-3.60;99.90
24448;DHT22;13348;50.984;5.822;2023-02-28T06:06:13;-3.50;99.90
24448;DHT22;13348;50.984;5.822;2023-02-28T06:08:40;-3.50;99.90
24448;DHT22;13348;50.984;5.822;2023-02-28T06:11:10;-3.50;99.90
24448;DHT22;13348;50.984;5.822;2023-02-28T06:13:37;-3.40;99.90
24448;DHT22;13348;50.984;5.822;2023-02-28T06:16:04;-3.50;99.90
24448;DHT22;13348;50.984;5.822;2023-02-28T06:18:31;-3.40;99.90
24448;DHT22;13348;50.984;5.822;2023-02-28T06:20:58;-3.30;99.90
24448;DHT22;13348;50.984;5.822;2023-02-28T06:23:25;-3.30;99.90
24448;DHT22;13348;50.984;5.822;2023-02-28T06:25:52;-3.20;99.90
24448;DHT22;13348;50.984;5.822;2023-02-28T06:28:24;-3.10;99.90
24448;DHT22;13348;50.984;5.822;2023-02-28T06:30:51;-3.20;99.90
24448;DHT22;13348;50.984;5.822;2023-02-28T06:33:18;-3.00;99.90
24448;DHT22;13348;50.984;5.822;2023-02-28T06:35:46;-3.00;99.90
24448;DHT22;13348;50.984;5.822;2023-02-28T06:38:13;-3.10;99.90
24448;DHT22;13348;50.984;5.822;2023-02-28T06:40:40;-3.10;99.90
24448;DHT22;13348;50.984;5.822;2023-02-28T06:43:07;-3.10;99.90
24448;DHT22;13348;50.984;5.822;2023-02-28T06:45:35;-3.20;99.90
24448;DHT22;13348;50.984;5.822;2023-02-28T06:48:03;-3.20;99.90
24448;DHT22;13348;50.984;5.822;2023-02-28T06:50:29;-3.20;99.90
24448;DHT22;13348;50.984;5.822;2023-02-28T06:52:58;-3.30;99.90
24448;DHT22;13348;50.984;5.822;2023-02-28T06:55:24;-3.30;99.90
24448;DHT22;13348;50.984;5.822;2023-02-28T06:57:51;-3.30;99.90
24448;DHT22;13348;50.984;5.822;2023-02-28T07:00:20;-3.20;99.90
24448;DHT22;13348;50.984;5.822;2023-02-28T07:02:49;-3.10;99.90
24448;DHT22;13348;50.984;5.822;2023-02-28T07:05:16;-2.90;99.90
24448;DHT22;13348;50.984;5.822;2023-02-28T07:07:43;-2.90;99.90
24448;DHT22;13348;50.984;5.822;2023-02-28T07:10:12;-2.60;99.90
24448;DHT22;13348;50.984;5.822;2023-02-28T07:12:42;-2.50;99.90
24448;DHT22;13348;50.984;5.822;2023-02-28T07:15:10;-2.50;99.90
24448;DHT22;13348;50.984;5.822;2023-02-28T07:17:37;-2.50;99.90
24448;DHT22;13348;50.984;5.822;2023-02-28T07:20:06;-2.40;99.90
24448;DHT22;13348;50.984;5.822;2023-02-28T07:22:33;-2.50;99.90
24448;DHT22;13348;50.984;5.822;2023-02-28T07:25:00;-2.40;99.90
24448;DHT22;13348;50.984;5.822;2023-02-28T07:27:26;-2.30;99.90
24448;DHT22;13348;50.984;5.822;2023-02-28T07:29:53;-2.20;99.90
24448;DHT22;13348;50.984;5.822;2023-02-28T07:32:20;-2.20;99.90
24448;DHT22;13348;50.984;5.822;2023-02-28T07:34:47;-2.00;99.90
24448;DHT22;13348;50.984;5.822;2023-02-28T07:37:16;-2.00;99.90
24448;DHT22;13348;50.984;5.822;2023-02-28T07:39:43;-1.80;99.90
24448;DHT22;13348;50.984;5.822;2023-02-28T07:42:10;-1.80;99.90
24448;DHT22;13348;50.984;5.822;2023-02-28T07:44:38;-1.70;99.90
24448;DHT22;13348;50.984;5.822;2023-02-28T07:47:06;-1.70;99.90
24448;DHT22;13348;50.984;5.822;2023-02-28T07:49:34;-1.60;99.90
24448;DHT22;13348;50.984;5.822;2023-02-28T07:52:01;-1.60;99.90
24448;DHT22;13348;50.984;5.822;2023-02-28T07:54:29;-1.50;99.90
24448;DHT22;13348;50.984;5.822;2023-02-28T07:56:56;-1.40;99.90
24448;DHT22;13348;50.984;5.822;2023-02-28T07:59:23;-1.30;99.90
24448;DHT22;13348;50.984;5.822;2023-02-28T08:01:50;-1.20;99.90
24448;DHT22;13348;50.984;5.822;2023-02-28T08:04:17;-1.20;99.90
24448;DHT22;13348;50.984;5.822;2023-02-28T08:06:45;-1.10;99.90
24448;DHT22;13348;50.984;5.822;2023-02-28T08:09:12;-1.00;99.90
24448;DHT22;13348;50.984;5.822;2023-02-28T08:11:41;-0.80;99.90
24448;DHT22;13348;50.984;5.822;2023-02-28T08:14:08;-0.70;99.90
24448;DHT22;13348;50.984;5.822;2023-02-28T08:16:35;-0.60;99.90
24448;DHT22;13348;50.984;5.822;2023-02-28T08:19:02;-0.50;99.90
24448;DHT22;13348;50.984;5.822;2023-02-28T08:21:29;-0.40;99.90
24448;DHT22;13348;50.984;5.822;2023-02-28T08:23:56;-0.20;99.90
24448;DHT22;13348;50.984;5.822;2023-02-28T08:26:23;-0.20;99.90
24448;DHT22;13348;50.984;5.822;2023-02-28T08:28:51;-0.10;99.90
24448;DHT22;13348;50.984;5.822;2023-02-28T08:31:18;0.00;99.90
24448;DHT22;13348;50.984;5.822;2023-02-28T08:33:45;0.20;99.90
24448;DHT22;13348;50.984;5.822;2023-02-28T08:36:13;0.30;99.90
24448;DHT22;13348;50.984;5.822;2023-02-28T08:38:40;0.40;99.90
24448;DHT22;13348;50.984;5.822;2023-02-28T08:41:09;0.60;99.90
24448;DHT22;13348;50.984;5.822;2023-02-28T08:43:36;0.70;99.90
24448;DHT22;13348;50.984;5.822;2023-02-28T08:46:05;0.90;99.90
24448;DHT22;13348;50.984;5.822;2023-02-28T08:48:33;0.90;99.90
24448;DHT22;13348;50.984;5.822;2023-02-28T08:51:03;0.90;99.90
24448;DHT22;13348;50.984;5.822;2023-02-28T08:53:31;1.00;99.90
24448;DHT22;13348;50.984;5.822;2023-02-28T08:55:58;1.00;99.90
24448;DHT22;13348;50.984;5.822;2023-02-28T08:58:25;1.00;99.90
24448;DHT22;13348;50.984;5.822;2023-02-28T09:00:53;1.00;99.90
24448;DHT22;13348;50.984;5.822;2023-02-28T09:03:22;1.10;99.90
24448;DHT22;13348;50.984;5.822;2023-02-28T09:05:53;1.30;99.90
24448;DHT22;13348;50.984;5.822;2023-02-28T09:08:20;1.30;99.90
24448;DHT22;13348;50.984;5.822;2023-02-28T09:10:47;1.40;99.90
24448;DHT22;13348;50.984;5.822;2023-02-28T09:13:14;1.60;99.90
24448;DHT22;13348;50.984;5.822;2023-02-28T09:15:41;1.60;99.90
24448;DHT22;13348;50.984;5.822;2023-02-28T09:18:08;1.70;99.90
24448;DHT22;13348;50.984;5.822;2023-02-28T09:20:38;1.80;99.90
24448;DHT22;13348;50.984;5.822;2023-02-28T09:23:06;1.80;99.90
24448;DHT22;13348;50.984;5.822;2023-02-28T09:25:33;2.00;99.90
24448;DHT22;13348;50.984;5.822;2023-02-28T09:28:00;2.00;99.90
24448;DHT22;13348;50.984;5.822;2023-02-28T09:30:27;2.20;99.90
24448;DHT22;13348;50.984;5.822;2023-02-28T09:32:54;2.30;99.90
24448;DHT22;13348;50.984;5.822;2023-02-28T09:35:22;2.30;99.90
24448;DHT22;13348;50.984;5.822;2023-02-28T09:37:50;2.40;99.90
24448;DHT22;13348;50.984;5.822;2023-02-28T09:40:18;2.60;99.90
24448;DHT22;13348;50.984;5.822;2023-02-28T09:42:46;3.00;99.90
24448;DHT22;13348;50.984;5.822;2023-02-28T09:45:16;3.10;99.90
24448;DHT22;13348;50.984;5.822;2023-02-28T09:47:46;3.20;99.90
24448;DHT22;13348;50.984;5.822;2023-02-28T09:50:17;3.00;99.90
24448;DHT22;13348;50.984;5.822;2023-02-28T09:52:44;2.80;99.90
24448;DHT22;13348;50.984;5.822;2023-02-28T09:55:18;2.80;99.90
24448;DHT22;13348;50.984;5.822;2023-02-28T09:57:45;2.80;99.90
24448;DHT22;13348;50.984;5.822;2023-02-28T10:00:14;2.80;99.90
24448;DHT22;13348;50.984;5.822;2023-02-28T10:02:50;2.90;99.90
24448;DHT22;13348;50.984;5.822;2023-02-28T10:05:19;3.30;99.90
24448;DHT22;13348;50.984;5.822;2023-02-28T10:07:50;3.70;99.90
24448;DHT22;13348;50.984;5.822;2023-02-28T10:10:23;4.10;99.90
24448;DHT22;13348;50.984;5.822;2023-02-28T10:12:52;4.30;99.90
24448;DHT22;13348;50.984;5.822;2023-02-28T10:15:19;4.30;99.90
24448;DHT22;13348;50.984;5.822;2023-02-28T10:17:48;4.40;99.90
24448;DHT22;13348;50.984;5.822;2023-02-28T10:20:17;4.60;99.90
24448;DHT22;13348;50.984;5.822;2023-02-28T10:22:50;4.70;99.90
24448;DHT22;13348;50.984;5.822;2023-02-28T10:25:19;4.70;99.90
24448;DHT22;13348;50.984;5.822;2023-02-28T10:27:48;4.90;99.90
24448;DHT22;13348;50.984;5.822;2023-02-28T10:30:16;5.10;99.90
24448;DHT22;13348;50.984;5.822;2023-02-28T10:32:44;5.00;99.90
24448;DHT22;13348;50.984;5.822;2023-02-28T10:35:15;4.90;99.60
24448;DHT22;13348;50.984;5.822;2023-02-28T10:37:43;5.10;98.80
24448;DHT22;13348;50.984;5.822;2023-02-28T10:40:25;5.40;97.90
24448;DHT22;13348;50.984;5.822;2023-02-28T10:42:57;5.40;98.10
24448;DHT22;13348;50.984;5.822;2023-02-28T10:45:25;5.50;97.60
24448;DHT22;13348;50.984;5.822;2023-02-28T10:47:53;5.20;96.60
24448;DHT22;13348;50.984;5.822;2023-02-28T10:50:28;5.20;95.90
24448;DHT22;13348;50.984;5.822;2023-02-28T10:52:56;5.40;95.40
24448;DHT22;13348;50.984;5.822;2023-02-28T10:55:31;5.30;95.60
24448;DHT22;13348;50.984;5.822;2023-02-28T10:58:00;5.20;96.10
24448;DHT22;13348;50.984;5.822;2023-02-28T11:00:32;5.30;95.60
24448;DHT22;13348;50.984;5.822;2023-02-28T11:02:59;5.10;95.80
24448;DHT22;13348;50.984;5.822;2023-02-28T11:05:27;4.50;95.60
24448;DHT22;13348;50.984;5.822;2023-02-28T11:07:55;4.80;96.10
24448;DHT22;13348;50.984;5.822;2023-02-28T11:10:23;4.90;96.50
24448;DHT22;13348;50.984;5.822;2023-02-28T11:12:53;5.20;97.70
24448;DHT22;13348;50.984;5.822;2023-02-28T11:15:23;5.30;95.80
24448;DHT22;13348;50.984;5.822;2023-02-28T11:17:54;5.50;95.70
24448;DHT22;13348;50.984;5.822;2023-02-28T11:20:21;5.60;96.30
24448;DHT22;13348;50.984;5.822;2023-02-28T11:22:49;5.30;96.70
24448;DHT22;13348;50.984;5.822;2023-02-28T11:25:20;5.10;95.80
24448;DHT22;13348;50.984;5.822;2023-02-28T11:27:48;5.20;96.20
24448;DHT22;13348;50.984;5.822;2023-02-28T11:33:26;5.30;95.40
24448;DHT22;13348;50.984;5.822;2023-02-28T11:35:54;5.00;95.90
24448;DHT22;13348;50.984;5.822;2023-02-28T11:38:23;5.20;95.80
24448;DHT22;13348;50.984;5.822;2023-02-28T11:40:54;5.60;95.70
24448;DHT22;13348;50.984;5.822;2023-02-28T11:43:29;5.40;95.30
24448;DHT22;13348;50.984;5.822;2023-02-28T11:46:01;5.30;95.70
24448;DHT22;13348;50.984;5.822;2023-02-28T11:48:33;5.40;94.80
24448;DHT22;13348;50.984;5.822;2023-02-28T11:51:10;5.70;96.20
24448;DHT22;13348;50.984;5.822;2023-02-28T11:53:47;6.30;95.80
24448;DHT22;13348;50.984;5.822;2023-02-28T11:56:17;6.50;93.70
24448;DHT22;13348;50.984;5.822;2023-02-28T11:58:49;6.00;93.60
24448;DHT22;13348;50.984;5.822;2023-02-28T12:01:29;5.80;94.30
24448;DHT22;13348;50.984;5.822;2023-02-28T12:04:01;6.00;94.80
24448;DHT22;13348;50.984;5.822;2023-02-28T12:06:32;6.30;93.90
24448;DHT22;13348;50.984;5.822;2023-02-28T12:09:02;6.30;93.90
24448;DHT22;13348;50.984;5.822;2023-02-28T12:11:38;5.90;94.20
24448;DHT22;13348;50.984;5.822;2023-02-28T12:14:14;5.60;95.50
24448;DHT22;13348;50.984;5.822;2023-02-28T12:16:53;5.90;95.90
24448;DHT22;13348;50.984;5.822;2023-02-28T12:19:26;5.90;95.20
24448;DHT22;13348;50.984;5.822;2023-02-28T12:22:06;6.00;95.10
24448;DHT22;13348;50.984;5.822;2023-02-28T12:24:48;6.30;95.90
24448;DHT22;13348;50.984;5.822;2023-02-28T12:27:21;6.20;95.10
24448;DHT22;13348;50.984;5.822;2023-02-28T12:29:49;6.10;95.80
24448;DHT22;13348;50.984;5.822;2023-02-28T12:32:18;6.30;96.00
24448;DHT22;13348;50.984;5.822;2023-02-28T12:34:47;6.30;95.10
24448;DHT22;13348;50.984;5.822;2023-02-28T12:37:15;6.50;94.20
24448;DHT22;13348;50.984;5.822;2023-02-28T12:39:44;6.40;94.10
24448;DHT22;13348;50.984;5.822;2023-02-28T12:42:13;6.20;94.80
24448;DHT22;13348;50.984;5.822;2023-02-28T12:44:44;5.50;94.40
24448;DHT22;13348;50.984;5.822;2023-02-28T12:47:13;4.70;94.70
24448;DHT22;13348;50.984;5.822;2023-02-28T12:49:42;5.10;94.90
24448;DHT22;13348;50.984;5.822;2023-02-28T12:52:13;5.50;95.90
24448;DHT22;13348;50.984;5.822;2023-02-28T12:54:43;5.80;95.30
24448;DHT22;13348;50.984;5.822;2023-02-28T12:57:12;5.70;96.50
24448;DHT22;13348;50.984;5.822;2023-02-28T12:59:40;6.10;95.30
24448;DHT22;13348;50.984;5.822;2023-02-28T13:10:40;6.20;96.40
24448;DHT22;13348;50.984;5.822;2023-02-28T13:13:11;6.30;95.00
24448;DHT22;13348;50.984;5.822;2023-02-28T13:15:40;6.30;95.50
24448;DHT22;13348;50.984;5.822;2023-02-28T13:18:24;6.50;94.80
24448;DHT22;13348;50.984;5.822;2023-02-28T13:20:54;6.70;94.20
24448;DHT22;13348;50.984;5.822;2023-02-28T13:26:25;6.70;95.60
24448;DHT22;13348;50.984;5.822;2023-02-28T13:29:25;6.90;94.90
24448;DHT22;13348;50.984;5.822;2023-02-28T13:34:41;7.30;95.20
24448;DHT22;13348;50.984;5.822;2023-02-28T13:39:55;6.70;94.00
24448;DHT22;13348;50.984;5.822;2023-02-28T13:42:23;6.90;94.30
24448;DHT22;13348;50.984;5.822;2023-02-28T13:47:33;7.30;95.90
24448;DHT22;13348;50.984;5.822;2023-02-28T13:52:52;5.90;95.70
24448;DHT22;13348;50.984;5.822;2023-02-28T13:55:26;5.30;97.50
24448;DHT22;13348;50.984;5.822;2023-02-28T13:58:07;5.10;97.40
24448;DHT22;13348;50.984;5.822;2023-02-28T14:00:43;5.60;97.60
24448;DHT22;13348;50.984;5.822;2023-02-28T14:03:22;5.70;98.50
24448;DHT22;13348;50.984;5.822;2023-02-28T14:08:33;5.70;97.40
24448;DHT22;13348;50.984;5.822;2023-02-28T14:11:03;5.90;96.60
24448;DHT22;13348;50.984;5.822;2023-02-28T14:13:37;6.40;97.70
24448;DHT22;13348;50.984;5.822;2023-02-28T14:16:10;6.30;96.40
24448;DHT22;13348;50.984;5.822;2023-02-28T14:18:39;5.80;96.80
24448;DHT22;13348;50.984;5.822;2023-02-28T14:21:11;5.80;96.20
24448;DHT22;13348;50.984;5.822;2023-02-28T14:23:43;6.10;96.40
24448;DHT22;13348;50.984;5.822;2023-02-28T14:26:14;6.30;96.50
24448;DHT22;13348;50.984;5.822;2023-02-28T14:28:53;6.00;97.10
24448;DHT22;13348;50.984;5.822;2023-02-28T14:31:22;6.70;96.80
24448;DHT22;13348;50.984;5.822;2023-02-28T14:33:59;7.10;95.80
24448;DHT22;13348;50.984;5.822;2023-02-28T14:36:31;6.50;95.60
24448;DHT22;13348;50.984;5.822;2023-02-28T14:38:59;7.00;95.20
24448;DHT22;13348;50.984;5.822;2023-02-28T14:41:29;7.20;95.20
24448;DHT22;13348;50.984;5.822;2023-02-28T14:43:56;7.30;94.70
24448;DHT22;13348;50.984;5.822;2023-02-28T14:46:25;7.00;94.60
24448;DHT22;13348;50.984;5.822;2023-02-28T14:48:54;6.80;94.90
24448;DHT22;13348;50.984;5.822;2023-02-28T14:51:23;7.00;95.30
24448;DHT22;13348;50.984;5.822;2023-02-28T14:53:52;7.50;95.70
24448;DHT22;13348;50.984;5.822;2023-02-28T14:56:21;7.50;95.10
24448;DHT22;13348;50.984;5.822;2023-02-28T14:58:50;7.30;95.80
24448;DHT22;13348;50.984;5.822;2023-02-28T15:01:19;7.20;95.30
24448;DHT22;13348;50.984;5.822;2023-02-28T15:03:46;6.90;95.40
24448;DHT22;13348;50.984;5.822;2023-02-28T15:06:14;6.70;95.30
24448;DHT22;13348;50.984;5.822;2023-02-28T15:08:44;6.30;95.80
24448;DHT22;13348;50.984;5.822;2023-02-28T15:11:12;6.30;95.20
24448;DHT22;13348;50.984;5.822;2023-02-28T15:13:42;6.10;96.20
24448;DHT22;13348;50.984;5.822;2023-02-28T15:16:10;5.70;96.70
24448;DHT22;13348;50.984;5.822;2023-02-28T15:18:42;5.40;97.30
24448;DHT22;13348;50.984;5.822;2023-02-28T15:21:11;5.30;98.40
24448;DHT22;13348;50.984;5.822;2023-02-28T15:23:39;5.30;98.40
24448;DHT22;13348;50.984;5.822;2023-02-28T15:26:10;5.80;98.50
24448;DHT22;13348;50.984;5.822;2023-02-28T15:28:37;5.90;98.40
24448;DHT22;13348;50.984;5.822;2023-02-28T15:31:17;6.30;98.40
24448;DHT22;13348;50.984;5.822;2023-02-28T15:33:51;6.10;97.40
24448;DHT22;13348;50.984;5.822;2023-02-28T15:36:18;6.00;97.90
24448;DHT22;13348;50.984;5.822;2023-02-28T15:38:48;6.10;98.20
24448;DHT22;13348;50.984;5.822;2023-02-28T15:41:23;6.20;98.20
24448;DHT22;13348;50.984;5.822;2023-02-28T15:46:33;6.50;98.40
24448;DHT22;13348;50.984;5.822;2023-02-28T15:48:59;6.30;97.00
24448;DHT22;13348;50.984;5.822;2023-02-28T15:51:28;6.10;97.30
24448;DHT22;13348;50.984;5.822;2023-02-28T15:53:56;5.70;99.20
24448;DHT22;13348;50.984;5.822;2023-02-28T15:56:25;5.60;99.50
24448;DHT22;13348;50.984;5.822;2023-02-28T15:58:53;5.20;99.90
24448;DHT22;13348;50.984;5.822;2023-02-28T16:01:24;4.90;99.80
24448;DHT22;13348;50.984;5.822;2023-02-28T16:03:52;4.70;99.90
24448;DHT22;13348;50.984;5.822;2023-02-28T16:06:30;4.60;99.90
24448;DHT22;13348;50.984;5.822;2023-02-28T16:08:58;4.50;99.90
24448;DHT22;13348;50.984;5.822;2023-02-28T16:11:27;4.40;99.90
24448;DHT22;13348;50.984;5.822;2023-02-28T16:13:54;4.40;99.90
24448;DHT22;13348;50.984;5.822;2023-02-28T16:16:22;4.40;99.90
24448;DHT22;13348;50.984;5.822;2023-02-28T16:18:50;4.30;99.90
24448;DHT22;13348;50.984;5.822;2023-02-28T16:21:17;4.20;99.90
24448;DHT22;13348;50.984;5.822;2023-02-28T16:23:44;4.20;99.90
24448;DHT22;13348;50.984;5.822;2023-02-28T16:26:14;4.20;99.90